createdAt,value
2022-08-12T00:00:34.463Z,42.30
2022-08-12T00:06:04.096Z,42.80
2022-08-12T00:11:27.362Z,43.30
2022-08-12T00:16:49.656Z,43.70
2022-08-12T00:22:11.057Z,44.10
2022-08-12T00:27:43.598Z,44.50
2022-08-12T00:33:08.534Z,44.80
2022-08-12T00:38:31.679Z,45.20
2022-08-12T00:43:36.579Z,45.60
2022-08-12T00:48:42.800Z,46.00
2022-08-12T00:53:46.476Z,46.20
2022-08-12T00:58:52.574Z,46.70
2022-08-12T01:04:26.252Z,47.20
2022-08-12T01:09:50.407Z,47.50
2022-08-12T01:14:55.612Z,47.80
2022-08-12T01:20:06.186Z,48.10
2022-08-12T01:25:13.691Z,48.60
2022-08-12T01:30:17.527Z,48.90
2022-08-12T01:35:22.866Z,49.10
2022-08-12T01:40:36.731Z,49.40
2022-08-12T01:45:55.789Z,49.80
2022-08-12T01:51:06.700Z,50.10
2022-08-12T01:56:14.670Z,50.40
2022-08-12T02:01:21.263Z,50.50
2022-08-12T02:06:48.452Z,50.80
2022-08-12T02:12:04.610Z,51.30
2022-08-12T02:17:55.105Z,51.70
2022-08-12T02:22:50.826Z,52.10
2022-08-12T02:27:57.839Z,52.20
2022-08-12T02:33:04.613Z,52.40
2022-08-12T02:38:11.199Z,52.50
2022-08-12T02:43:23.560Z,52.70
2022-08-12T02:48:30.227Z,52.90
2022-08-12T02:53:35.804Z,53.10
2022-08-12T02:58:45.331Z,53.60
2022-08-12T03:03:54.002Z,53.90
2022-08-12T03:09:00.791Z,54.00
2022-08-12T03:14:07.177Z,54.30
2022-08-12T03:19:13.938Z,54.50
2022-08-12T03:24:18.965Z,54.60
2022-08-12T03:29:30.314Z,54.80
2022-08-12T03:34:36.594Z,55.10
2022-08-12T03:39:45.231Z,55.30
2022-08-12T03:45:16.557Z,55.40
2022-08-12T03:50:39.840Z,55.50
2022-08-12T03:56:01.864Z,55.70
2022-08-12T04:01:07.270Z,56.10
2022-08-12T04:06:11.814Z,56.20
2022-08-12T04:11:32.986Z,56.40
2022-08-12T04:16:39.370Z,56.50
2022-08-12T04:22:01.919Z,56.30
2022-08-12T04:27:09.567Z,56.60
2022-08-12T04:32:15.709Z,57.20
2022-08-12T04:37:19.464Z,57.40
2022-08-12T04:42:23.908Z,57.50
2022-08-12T04:47:29.308Z,57.70
2022-08-12T04:52:34.959Z,57.80
2022-08-12T04:57:38.716Z,58.00
2022-08-12T05:02:43.979Z,58.10
2022-08-12T05:07:54.287Z,58.30
2022-08-12T05:13:01.085Z,58.40
2022-08-12T05:18:19.470Z,58.60
2022-08-12T05:23:24.138Z,58.50
2022-08-12T05:28:30.347Z,58.70
2022-08-12T05:33:37.675Z,58.90
2022-08-12T05:39:00.533Z,58.90
2022-08-12T05:44:06.469Z,59.00
2022-08-12T05:49:11.397Z,59.00
2022-08-12T05:54:16.423Z,59.00
2022-08-12T05:59:21.727Z,58.80
2022-08-12T06:04:26.647Z,58.90
2022-08-12T06:09:30.962Z,59.00
2022-08-12T06:14:37.801Z,59.00
2022-08-12T06:20:27.625Z,58.80
2022-08-12T06:25:07.793Z,58.40
2022-08-12T06:30:18.539Z,57.90
2022-08-12T06:35:49.110Z,57.30
2022-08-12T06:41:15.128Z,57.00
2022-08-12T06:46:19.480Z,56.60
2022-08-12T06:51:24.600Z,56.30
2022-08-12T06:56:59.762Z,56.10
2022-08-12T07:01:52.289Z,56.00
2022-08-12T07:06:57.372Z,55.70
2022-08-12T07:12:01.205Z,55.50
2022-08-12T07:17:06.165Z,55.20
2022-08-12T07:22:13.492Z,55.00
2022-08-12T07:27:17.464Z,54.70
2022-08-12T07:32:24.545Z,54.50
2022-08-12T07:37:35.135Z,54.30
2022-08-12T07:42:39.462Z,54.10
2022-08-12T07:47:43.885Z,53.90
2022-08-12T07:52:49.509Z,53.60
2022-08-12T07:57:57.950Z,53.10
2022-08-12T08:03:02.239Z,53.00
2022-08-12T08:08:16.215Z,51.70
2022-08-12T08:13:20.711Z,51.30
2022-08-12T08:18:27.534Z,50.90
2022-08-12T08:23:46.985Z,50.40
2022-08-12T08:29:00.655Z,49.80
2022-08-12T08:34:47.342Z,49.10
2022-08-12T08:39:31.956Z,48.30
2022-08-12T08:44:38.746Z,47.50
2022-08-12T08:49:42.590Z,46.80
2022-08-12T08:54:48.791Z,46.10
2022-08-12T08:59:52.396Z,45.20
2022-08-12T09:05:12.013Z,44.30
2022-08-12T09:10:31.228Z,43.20
2022-08-12T09:15:38.958Z,41.80
2022-08-12T09:20:45.729Z,40.50
2022-08-12T09:25:55.893Z,39.60
2022-08-12T09:31:00.252Z,38.50
2022-08-12T09:36:05.477Z,37.50
2022-08-12T09:42:10.017Z,36.50
2022-08-12T09:46:34.948Z,35.50
2022-08-12T09:51:44.070Z,34.70
2022-08-12T09:57:00.362Z,33.80
2022-08-12T10:02:42.705Z,33.10
2022-08-12T10:07:39.363Z,32.50
2022-08-12T10:13:07.285Z,31.80
2022-08-12T10:18:14.423Z,31.40
2022-08-12T10:23:19.072Z,31.00
2022-08-12T10:29:02.883Z,30.50
2022-08-12T10:34:14.851Z,30.40
2022-08-12T10:40:01.272Z,29.70
2022-08-12T10:45:01.925Z,29.30
2022-08-12T10:50:29.704Z,28.90
2022-08-12T10:55:31.142Z,28.60
2022-08-12T11:00:55.343Z,28.50
2022-08-12T11:07:07.910Z,28.20
2022-08-12T11:12:34.792Z,27.90
2022-08-12T11:17:43.964Z,27.70
2022-08-12T11:22:24.106Z,27.40
2022-08-12T11:27:28.737Z,27.30
2022-08-12T11:32:38.452Z,27.60
2022-08-12T11:37:57.840Z,26.90
2022-08-12T11:43:18.673Z,26.70
2022-08-12T11:48:26.640Z,26.60
2022-08-12T11:53:57.136Z,26.40
2022-08-12T12:04:29.048Z,26.10
2022-08-12T12:09:52.535Z,25.90
2022-08-12T12:15:00.488Z,25.80
2022-08-12T12:20:13.902Z,25.70
2022-08-12T12:25:19.691Z,25.60
2022-08-12T12:30:30.010Z,25.50
2022-08-12T12:36:18.947Z,25.40
2022-08-12T12:40:59.635Z,25.40
2022-08-12T12:46:19.155Z,25.30
2022-08-12T12:52:06.747Z,25.10
2022-08-12T12:56:50.221Z,25.00
2022-08-12T13:01:53.873Z,24.80
2022-08-12T13:06:59.050Z,24.80
2022-08-12T13:12:08.213Z,24.70
2022-08-12T13:17:14.547Z,24.70
2022-08-12T13:22:21.027Z,24.60
2022-08-12T13:27:35.037Z,24.50
2022-08-12T13:32:40.501Z,24.30
2022-08-12T13:37:54.782Z,24.30
2022-08-12T13:43:01.904Z,24.20
2022-08-12T13:48:07.506Z,24.20
2022-08-12T13:53:23.707Z,24.20
2022-08-12T13:58:33.098Z,24.20
2022-08-12T14:03:51.242Z,24.20
2022-08-12T14:08:56.881Z,24.20
2022-08-12T14:14:05.342Z,24.10
2022-08-12T14:19:22.203Z,24.20
2022-08-12T14:24:41.064Z,24.20
2022-08-12T14:30:05.082Z,24.10
2022-08-12T14:35:11.025Z,24.20
2022-08-12T14:40:18.177Z,24.30
2022-08-12T14:45:23.016Z,24.30
2022-08-12T14:50:37.564Z,24.40
2022-08-12T15:01:33.377Z,24.50
2022-08-12T15:06:43.527Z,25.00
2022-08-12T15:11:55.424Z,24.60
2022-08-12T15:17:07.082Z,24.70
2022-08-12T15:22:39.459Z,24.70
